createdAt,value
2018-12-07T00:00:22.715Z,98482.81
2018-12-07T00:02:58.036Z,98484.78
2018-12-07T00:05:32.072Z,98419.31
2018-12-07T00:08:06.184Z,98492.04
2018-12-07T00:10:40.605Z,98488.38
2018-12-07T00:13:11.440Z,98487.56
2018-12-07T00:15:42.286Z,98485.48
2018-12-07T00:18:19.149Z,98481.11
2018-12-07T00:20:57.173Z,98482.22
2018-12-07T00:23:29.196Z,98475.20
2018-12-07T00:26:00.338Z,98466.52
2018-12-07T00:28:32.274Z,98476.43
2018-12-07T00:31:03.173Z,98469.50
2018-12-07T00:33:34.313Z,98470.08
2018-12-07T00:36:05.198Z,98458.38
2018-12-07T00:38:36.221Z,98461.25
2018-12-07T00:41:08.506Z,98457.53
2018-12-07T00:43:41.393Z,98455.00
2018-12-07T00:46:15.428Z,98454.04
2018-12-07T00:48:46.706Z,98456.41
2018-12-07T00:51:17.473Z,98449.77
2018-12-07T00:53:48.355Z,98454.16
2018-12-07T00:56:20.549Z,98449.66
2018-12-07T00:58:51.582Z,98447.96
2018-12-07T01:01:22.744Z,98444.41
2018-12-07T01:03:53.908Z,98439.91
2018-12-07T01:06:24.988Z,98433.55
2018-12-07T01:08:57.423Z,98434.48
2018-12-07T01:11:28.629Z,98427.00
2018-12-07T01:13:59.652Z,98433.74
2018-12-07T01:16:30.630Z,98434.39
2018-12-07T01:19:03.139Z,98425.16
2018-12-07T01:21:34.079Z,98424.84
2018-12-07T01:24:05.017Z,98428.12
2018-12-07T01:26:35.932Z,98424.30
2018-12-07T01:29:07.034Z,98426.62
2018-12-07T01:31:38.300Z,98424.78
2018-12-07T01:34:09.126Z,98429.26
2018-12-07T01:36:39.930Z,98427.18
2018-12-07T01:39:10.710Z,98429.55
2018-12-07T01:41:41.753Z,98426.73
2018-12-07T01:44:12.537Z,98423.84
2018-12-07T01:46:48.912Z,98423.55
2018-12-07T01:49:26.861Z,98420.83
2018-12-07T01:52:11.254Z,98416.41
2018-12-07T01:54:42.457Z,98404.64
2018-12-07T01:57:14.953Z,98415.55
2018-12-07T01:59:46.003Z,98409.39
2018-12-07T02:02:16.889Z,98407.53
2018-12-07T02:04:53.580Z,98410.23
2018-12-07T02:07:36.810Z,98403.48
2018-12-07T02:10:13.346Z,98398.90
2018-12-07T02:12:46.263Z,98398.92
2018-12-07T02:15:23.406Z,98397.23
2018-12-07T02:18:00.537Z,98394.97
2018-12-07T02:20:36.556Z,98391.42
2018-12-07T02:23:13.073Z,98391.38
2018-12-07T02:25:49.155Z,98385.48
2018-12-07T02:28:24.398Z,98388.38
2018-12-07T02:30:58.597Z,98384.94
2018-12-07T02:33:33.857Z,98380.70
2018-12-07T02:36:09.226Z,98375.27
2018-12-07T02:38:43.853Z,98360.42
2018-12-07T02:41:17.998Z,98360.89
2018-12-07T02:43:54.157Z,98365.36
2018-12-07T02:46:25.808Z,98372.26
2018-12-07T02:48:58.862Z,98360.95
2018-12-07T02:51:35.275Z,98356.38
2018-12-07T02:54:11.231Z,98358.07
2018-12-07T02:56:47.482Z,98360.50
2018-12-07T02:59:22.868Z,98353.67
2018-12-07T03:02:01.120Z,98356.22
2018-12-07T03:04:38.047Z,98346.12
2018-12-07T03:07:19.540Z,98334.87
2018-12-07T03:09:54.276Z,98339.56
2018-12-07T03:12:25.552Z,98338.33
2018-12-07T03:14:56.418Z,98338.33
2018-12-07T03:17:33.141Z,98329.16
2018-12-07T03:20:04.632Z,98328.77
2018-12-07T03:25:32.562Z,98317.82
2018-12-07T03:28:04.724Z,98312.51
2018-12-07T03:30:38.776Z,98306.53
2018-12-07T03:33:13.040Z,98307.45
2018-12-07T03:35:47.582Z,98305.88
2018-12-07T03:38:24.050Z,98303.64
2018-12-07T03:40:55.229Z,98305.03
2018-12-07T03:43:26.410Z,98301.37
2018-12-07T03:46:01.182Z,98305.88
2018-12-07T03:48:41.549Z,98299.52
2018-12-07T03:51:12.371Z,98302.88
2018-12-07T03:53:43.194Z,98309.42
2018-12-07T03:56:14.185Z,98306.99
2018-12-07T04:01:41.220Z,98300.59
2018-12-07T04:04:12.127Z,98296.31
2018-12-07T04:06:46.233Z,98301.55
2018-12-07T04:09:18.249Z,98302.83
2018-12-07T04:11:54.822Z,98296.84
2018-12-07T04:14:28.895Z,98287.13
2018-12-07T04:17:00.124Z,98284.98
2018-12-07T04:19:31.307Z,98282.95
2018-12-07T04:22:04.019Z,98281.19
2018-12-07T04:24:35.145Z,98277.37
2018-12-07T04:27:06.153Z,98274.83
2018-12-07T04:29:37.156Z,98271.47
2018-12-07T04:32:08.701Z,98276.79
2018-12-07T04:34:40.533Z,98269.31
2018-12-07T04:37:11.574Z,98256.22
2018-12-07T04:39:42.540Z,98258.77
2018-12-07T04:42:13.453Z,98255.30
2018-12-07T04:44:44.405Z,98258.45
2018-12-07T04:47:15.421Z,98254.50
2018-12-07T04:49:46.495Z,98252.81
2018-12-07T04:55:24.156Z,98248.29
2018-12-07T04:57:55.088Z,98254.37
2018-12-07T05:00:26.176Z,98249.98
2018-12-07T05:02:57.309Z,98249.61
2018-12-07T05:05:29.831Z,98241.98
2018-12-07T05:08:01.093Z,98249.45
2018-12-07T05:10:33.574Z,98245.73
2018-12-07T05:13:04.540Z,98244.66
2018-12-07T05:15:35.647Z,98235.19
2018-12-07T05:18:06.651Z,98236.55
2018-12-07T05:20:38.706Z,98234.25
2018-12-07T05:23:09.649Z,98233.88
2018-12-07T05:25:40.525Z,98229.59
2018-12-07T05:28:11.429Z,98232.02
2018-12-07T05:30:42.274Z,98228.13
2018-12-07T05:33:13.508Z,98230.66
2018-12-07T05:35:44.415Z,98231.70
2018-12-07T05:38:15.843Z,98231.13
2018-12-07T05:43:13.273Z,98226.90
2018-12-07T05:45:44.217Z,98218.48
2018-12-07T05:48:31.213Z,98221.98
2018-12-07T05:51:03.492Z,98217.92
2018-12-07T05:53:34.972Z,98213.91
2018-12-07T05:56:05.948Z,98210.97
2018-12-07T05:58:37.066Z,98206.91
2018-12-07T06:01:25.358Z,98207.23
2018-12-07T06:03:57.447Z,98212.67
2018-12-07T06:06:28.603Z,98201.40
2018-12-07T06:09:04.319Z,98209.93
2018-12-07T06:11:38.119Z,98209.41
2018-12-07T06:14:12.558Z,98206.69
2018-12-07T06:16:44.608Z,98206.14
2018-12-07T06:19:21.276Z,98203.91
2018-12-07T06:21:52.176Z,98200.90
2018-12-07T06:24:26.951Z,98197.17
2018-12-07T06:26:59.648Z,98196.36
2018-12-07T06:29:34.808Z,98195.02
2018-12-07T06:32:07.639Z,98196.38
2018-12-07T06:34:41.299Z,98200.27
2018-12-07T06:37:15.868Z,98204.18
2018-12-07T06:39:52.276Z,98200.70
2018-12-07T06:42:27.897Z,98195.77
2018-12-07T06:45:02.672Z,98190.55
2018-12-07T06:47:39.444Z,98185.61
2018-12-07T06:50:15.566Z,98185.22
2018-12-07T06:52:50.442Z,98189.03
2018-12-07T06:55:24.676Z,98189.96
2018-12-07T06:58:00.855Z,98182.34
2018-12-07T07:00:37.635Z,98181.62
2018-12-07T07:03:09.645Z,98179.60
2018-12-07T07:05:46.098Z,98171.53
2018-12-07T07:08:18.624Z,98171.21
2018-12-07T07:10:52.834Z,98174.56
2018-12-07T07:13:29.345Z,98165.59
2018-12-07T07:16:00.296Z,98165.04
2018-12-07T07:18:34.788Z,98164.63
2018-12-07T07:21:09.745Z,98153.09
2018-12-07T07:23:45.895Z,98159.50
2018-12-07T07:26:21.042Z,98158.97
2018-12-07T07:28:52.729Z,98154.52
2018-12-07T07:31:29.076Z,98146.59
2018-12-07T07:34:06.314Z,98141.17
2018-12-07T07:36:38.346Z,98134.81
2018-12-07T07:39:09.612Z,98140.23
2018-12-07T07:41:43.238Z,98143.06
2018-12-07T07:44:14.037Z,98146.67
2018-12-07T07:46:45.120Z,98141.17
2018-12-07T07:49:22.042Z,98139.98
2018-12-07T07:51:58.881Z,98144.21
2018-12-07T07:54:34.989Z,98138.84
2018-12-07T07:57:06.660Z,98137.22
2018-12-07T07:59:37.655Z,98129.78
2018-12-07T08:02:09.721Z,98125.04
2018-12-07T08:04:46.357Z,98121.02
2018-12-07T08:07:20.787Z,98116.95
2018-12-07T08:09:55.314Z,98124.50
2018-12-07T08:12:31.611Z,98117.73
2018-12-07T08:15:06.273Z,98126.45
2018-12-07T08:17:45.668Z,98120.73
2018-12-07T08:20:19.140Z,98117.41
2018-12-07T08:22:53.449Z,98113.84
2018-12-07T08:25:27.543Z,98108.55
2018-12-07T08:28:02.050Z,98095.44
2018-12-07T08:30:36.713Z,98090.45
2018-12-07T08:33:12.439Z,98089.02
2018-12-07T08:35:47.742Z,98078.09
2018-12-07T08:38:22.846Z,98071.91
2018-12-07T08:41:02.947Z,98073.85
2018-12-07T08:46:43.486Z,98055.81
2018-12-07T08:49:18.049Z,98054.94
2018-12-07T08:51:50.060Z,98052.59
2018-12-07T08:54:22.397Z,98043.41
2018-12-07T08:56:56.570Z,98036.38
2018-12-07T08:59:31.767Z,98038.16
2018-12-07T09:02:04.401Z,98032.93
2018-12-07T09:04:39.227Z,98030.28
2018-12-07T09:07:13.352Z,98034.44
2018-12-07T09:09:47.561Z,98026.30
2018-12-07T09:12:22.551Z,98021.52
2018-12-07T09:14:54.976Z,98016.48
2018-12-07T09:17:26.140Z,98011.20
2018-12-07T09:19:57.994Z,98023.49
2018-12-07T09:22:30.322Z,98015.84
2018-12-07T09:25:02.277Z,97926.58
2018-12-07T09:27:36.120Z,98015.61
2018-12-07T09:30:07.918Z,98012.00
2018-12-07T09:32:39.032Z,98012.15
2018-12-07T09:35:13.681Z,98009.49
2018-12-07T09:37:47.771Z,97973.73
2018-12-07T09:40:25.155Z,97998.30
2018-12-07T09:42:58.899Z,97992.81
2018-12-07T09:45:36.868Z,97990.41
2018-12-07T09:48:13.171Z,97996.25
2018-12-07T09:50:49.704Z,97984.55
2018-12-07T09:53:26.753Z,97984.78
2018-12-07T09:55:58.682Z,97987.53
2018-12-07T09:58:32.730Z,97983.34
2018-12-07T10:01:27.509Z,97981.70
2018-12-07T10:04:16.685Z,97984.70
2018-12-07T10:07:03.216Z,97977.72
2018-12-07T10:09:47.947Z,97970.34
2018-12-07T10:15:41.887Z,97960.93
2018-12-07T10:18:35.430Z,97949.36
2018-12-07T10:32:33.783Z,97931.15
2018-12-07T10:35:24.337Z,97939.40
2018-12-07T10:38:13.354Z,97929.14
2018-12-07T10:41:03.557Z,97925.89
2018-12-07T10:43:49.110Z,97916.02
2018-12-07T10:46:45.558Z,97920.92
2018-12-07T10:49:18.113Z,97911.41
2018-12-07T10:51:52.344Z,97906.77
2018-12-07T10:57:16.921Z,97891.63
2018-12-07T10:59:57.634Z,97892.70
2018-12-07T11:02:38.160Z,97883.98
2018-12-07T11:05:36.593Z,97870.84
2018-12-07T11:08:29.697Z,97860.26
2018-12-07T11:11:13.729Z,97853.08
2018-12-07T11:20:52.803Z,97851.27
2018-12-07T11:23:30.239Z,97832.00
2018-12-07T11:26:11.918Z,97822.70
2018-12-07T11:28:54.249Z,97825.94
2018-12-07T11:31:32.156Z,97814.46
2018-12-07T11:34:11.087Z,97816.24
2018-12-07T11:36:47.031Z,97816.75
2018-12-07T11:39:24.206Z,97803.95
2018-12-07T11:42:00.794Z,97799.78
2018-12-07T11:44:36.582Z,97810.28
2018-12-07T11:47:12.889Z,97786.75
2018-12-07T11:49:46.974Z,97786.98
2018-12-07T11:52:21.017Z,97778.63
2018-12-07T11:54:55.345Z,97779.95
2018-12-07T11:57:29.875Z,97777.55
2018-12-07T12:00:05.504Z,97779.23
2018-12-07T12:02:37.491Z,97774.69
2018-12-07T12:05:30.008Z,97779.34
2018-12-07T12:08:08.097Z,97776.37
2018-12-07T12:10:40.506Z,97756.08
2018-12-07T12:13:12.772Z,97749.61
2018-12-07T12:15:45.151Z,97749.38
2018-12-07T12:18:19.968Z,97749.27
2018-12-07T12:20:52.551Z,97739.84
2018-12-07T12:23:23.663Z,97733.62
2018-12-07T12:25:54.815Z,97739.95
2018-12-07T12:28:31.257Z,97736.63
2018-12-07T12:31:10.419Z,97739.02
2018-12-07T12:33:41.371Z,97725.28
2018-12-07T12:36:16.991Z,97713.23
2018-12-07T12:38:45.527Z,97700.70
2018-12-07T12:41:16.567Z,97701.17
2018-12-07T12:43:48.424Z,97696.39
2018-12-07T12:46:19.352Z,97684.94
2018-12-07T12:48:50.268Z,97684.21
2018-12-07T12:51:24.719Z,97675.53
2018-12-07T12:54:01.064Z,97663.82
2018-12-07T12:56:41.206Z,97664.66
2018-12-07T12:59:17.804Z,97651.91
2018-12-07T13:01:55.877Z,97647.60
2018-12-07T13:04:30.101Z,97624.33
2018-12-07T13:07:05.978Z,97654.50
2018-12-07T13:09:42.016Z,97650.81
2018-12-07T13:13:06.471Z,97634.36
2018-12-07T13:15:47.739Z,97616.23
2018-12-07T13:21:30.502Z,97600.19
2018-12-07T13:24:15.388Z,97592.86
2018-12-07T13:26:50.753Z,97594.84
2018-12-07T13:29:41.302Z,97595.29
2018-12-07T13:32:21.384Z,97587.17
2018-12-07T13:35:00.443Z,97575.02
2018-12-07T13:40:48.726Z,97549.09
2018-12-07T13:43:25.547Z,97541.70
2018-12-07T13:48:51.757Z,97530.63
2018-12-07T13:51:42.975Z,97531.34
2018-12-07T13:54:32.848Z,97524.92
2018-12-07T14:00:09.340Z,97507.98
2018-12-07T14:02:43.466Z,97509.53
2018-12-07T14:05:22.019Z,97510.42
2018-12-07T14:17:23.204Z,97496.65
2018-12-07T14:22:54.626Z,97467.91
2018-12-07T14:25:26.000Z,97464.67
2018-12-07T14:28:12.482Z,97456.81
2018-12-07T14:30:58.123Z,97460.41
2018-12-07T14:33:29.363Z,97455.03
2018-12-07T14:36:02.795Z,97455.98
2018-12-07T14:38:49.508Z,97448.50
2018-12-07T14:41:27.374Z,97444.41
2018-12-07T14:44:07.724Z,97436.09
2018-12-07T14:46:51.382Z,97431.21
2018-12-07T14:49:27.242Z,97434.78
2018-12-07T14:52:19.723Z,97422.38
2018-12-07T14:54:52.157Z,97424.07
2018-12-07T14:57:24.419Z,97405.59
2018-12-07T14:59:58.104Z,97389.84
2018-12-07T15:02:39.244Z,97399.99
2018-12-07T15:11:19.747Z,97391.64
2018-12-07T15:13:50.919Z,97392.61
2018-12-07T15:16:24.581Z,97393.06
2018-12-07T15:18:59.722Z,97374.72
2018-12-07T15:21:31.361Z,97380.42
2018-12-07T15:27:11.101Z,97363.99
2018-12-07T15:32:45.646Z,97370.19
2018-12-07T15:35:26.696Z,97356.96
2018-12-07T15:38:22.790Z,97356.16
2018-12-07T15:41:56.818Z,97371.52
2018-12-07T15:54:51.295Z,97341.51
2018-12-07T15:57:33.375Z,97337.21
2018-12-07T16:00:12.925Z,97346.27
2018-12-07T16:02:51.461Z,97342.33
2018-12-07T16:05:29.640Z,97327.59
2018-12-07T16:11:05.762Z,97308.16
2018-12-07T16:19:40.129Z,97316.27
2018-12-07T16:22:22.984Z,97328.79
2018-12-07T16:24:56.810Z,97310.44
2018-12-07T16:27:28.469Z,97308.53
2018-12-07T16:30:01.307Z,97317.34
2018-12-07T16:32:33.826Z,97323.17
2018-12-07T16:35:05.240Z,97318.16
2018-12-07T16:37:37.170Z,97320.20
2018-12-07T16:40:11.070Z,97313.76
2018-12-07T16:42:42.841Z,97304.36
2018-12-07T16:45:14.150Z,97335.93
2018-12-07T16:47:46.477Z,97331.53
2018-12-07T16:50:18.182Z,97309.48
2018-12-07T16:52:49.687Z,97305.41
2018-12-07T16:55:20.891Z,97308.74
2018-12-07T16:57:53.230Z,97292.20
2018-12-07T17:00:24.714Z,97263.25
2018-12-07T17:02:55.841Z,97253.13
2018-12-07T17:05:32.456Z,97247.66
2018-12-07T17:08:09.022Z,97237.09
2018-12-07T17:10:41.200Z,97211.95
2018-12-07T17:13:17.739Z,97199.79
2018-12-07T17:15:54.461Z,97225.88
2018-12-07T17:18:31.544Z,97220.75
2018-12-07T17:21:02.706Z,97208.83
2018-12-07T17:23:37.936Z,97203.72
2018-12-07T17:26:10.073Z,97210.16
2018-12-07T17:28:43.587Z,97198.98
2018-12-07T17:31:18.282Z,97196.92
2018-12-07T17:33:53.402Z,97184.06
2018-12-07T17:36:27.836Z,97180.48
2018-12-07T17:39:06.561Z,97166.06
2018-12-07T17:41:41.449Z,97171.67
2018-12-07T17:44:17.522Z,97160.55
2018-12-07T17:46:50.542Z,97166.66
2018-12-07T17:49:25.047Z,97156.89
2018-12-07T17:51:56.233Z,97165.59
2018-12-07T17:54:31.030Z,97153.80
2018-12-07T17:57:13.497Z,97149.59
2018-12-07T17:59:50.179Z,97157.78
2018-12-07T18:02:25.350Z,97153.19
2018-12-07T18:05:01.395Z,97139.14
2018-12-07T18:07:36.422Z,97131.91
2018-12-07T18:10:11.241Z,97133.70
2018-12-07T18:12:48.019Z,97123.72
2018-12-07T18:15:20.664Z,97127.32
2018-12-07T18:17:57.797Z,97125.31
2018-12-07T18:20:32.152Z,97034.36
2018-12-07T18:23:03.354Z,97117.92
2018-12-07T18:25:34.829Z,97104.49
2018-12-07T18:28:06.065Z,97101.26
2018-12-07T18:30:40.762Z,97105.08
2018-12-07T18:33:15.550Z,97100.09
2018-12-07T18:36:01.572Z,97092.79
2018-12-07T18:38:38.089Z,97099.59
2018-12-07T18:41:11.456Z,97091.40
2018-12-07T18:43:46.247Z,97087.61
2018-12-07T18:46:23.462Z,97087.75
2018-12-07T18:48:57.888Z,97088.00
2018-12-07T18:51:38.632Z,97084.42
2018-12-07T18:54:10.323Z,97100.16
2018-12-07T18:56:41.896Z,97078.54
2018-12-07T18:59:13.016Z,97082.55
2018-12-07T19:01:55.977Z,97091.73
2018-12-07T19:04:30.487Z,97078.09
2018-12-07T19:07:03.394Z,97085.58
2018-12-07T19:09:40.388Z,97089.98
2018-12-07T19:12:24.358Z,97092.73
2018-12-07T19:14:56.134Z,97059.69
2018-12-07T19:17:27.761Z,97090.93
2018-12-07T19:20:03.178Z,97096.64
2018-12-07T19:22:38.253Z,97093.91
2018-12-07T19:25:12.514Z,97096.30
2018-12-07T19:27:45.772Z,97094.15
2018-12-07T19:30:16.947Z,97079.16
2018-12-07T19:32:51.344Z,97088.46
2018-12-07T19:35:22.458Z,97073.25
2018-12-07T19:37:54.760Z,97093.11
2018-12-07T19:40:27.487Z,97090.63
2018-12-07T19:43:00.286Z,97105.59
2018-12-07T19:45:31.538Z,97098.81
2018-12-07T19:48:02.851Z,97115.00
2018-12-07T19:50:34.512Z,97118.92
2018-12-07T19:53:05.633Z,97124.25
2018-12-07T19:55:36.967Z,97131.98
2018-12-07T19:58:08.677Z,97120.57
2018-12-07T20:00:47.959Z,97129.07
2018-12-07T20:03:18.973Z,97130.86
2018-12-07T20:05:50.282Z,97142.40
2018-12-07T20:08:21.979Z,97160.77
2018-12-07T20:10:56.794Z,97169.99
2018-12-07T20:13:28.328Z,97189.61
2018-12-07T20:16:02.924Z,97196.34
2018-12-07T20:18:34.707Z,97195.17
2018-12-07T20:21:06.381Z,97206.11
2018-12-07T20:23:37.965Z,97214.45
2018-12-07T20:26:08.901Z,97243.79
2018-12-07T20:28:40.276Z,97274.23
2018-12-07T20:31:11.361Z,97312.66
2018-12-07T20:33:43.399Z,97312.28
2018-12-07T20:36:14.617Z,97310.34
2018-12-07T20:38:45.893Z,97335.38
2018-12-07T20:41:21.246Z,97339.61
2018-12-07T20:43:53.914Z,97329.91
2018-12-07T20:46:26.874Z,97330.86
2018-12-07T20:49:03.714Z,97323.18
2018-12-07T20:51:40.407Z,97333.48
2018-12-07T20:54:12.025Z,97348.39
2018-12-07T20:56:43.003Z,97357.33
2018-12-07T20:59:14.487Z,97361.88
2018-12-07T21:01:51.657Z,97351.70
2018-12-07T21:04:32.052Z,97348.71
2018-12-07T21:08:14.639Z,97348.25
2018-12-07T21:11:50.877Z,97357.20
2018-12-07T21:14:32.442Z,97356.58
2018-12-07T21:17:18.420Z,97367.19
2018-12-07T21:20:28.952Z,97367.84
2018-12-07T21:23:03.356Z,97376.69
2018-12-07T21:25:36.712Z,97386.61
2018-12-07T21:28:08.829Z,97380.44
2018-12-07T21:31:01.392Z,97383.69
2018-12-07T21:33:49.444Z,97393.34
2018-12-07T21:36:35.721Z,97379.97
2018-12-07T21:39:11.337Z,97379.33
2018-12-07T21:41:42.236Z,97376.08
2018-12-07T21:44:13.404Z,97371.06
2018-12-07T21:46:45.086Z,97367.08
2018-12-07T21:49:16.379Z,97368.06
2018-12-07T21:52:05.966Z,97387.64
2018-12-07T21:54:37.404Z,97384.73
2018-12-07T21:57:08.789Z,97399.83
2018-12-07T21:59:40.283Z,97406.53
2018-12-07T22:02:11.329Z,97415.15
2018-12-07T22:04:42.452Z,97426.80
2018-12-07T22:07:13.506Z,97438.41
2018-12-07T22:09:44.454Z,97435.25
2018-12-07T22:12:19.519Z,97430.01
2018-12-07T22:14:54.058Z,97432.23
2018-12-07T22:17:25.597Z,97433.98
2018-12-07T22:19:57.414Z,97430.53
2018-12-07T22:22:28.711Z,97448.77
2018-12-07T22:25:00.055Z,97457.70
2018-12-07T22:27:31.414Z,97451.99
2018-12-07T22:30:04.243Z,97471.46
2018-12-07T22:32:39.128Z,97501.44
2018-12-07T22:35:22.085Z,97511.13
2018-12-07T22:37:53.317Z,97509.83
2018-12-07T22:40:24.821Z,97508.72
2018-12-07T22:42:56.098Z,97517.45
2018-12-07T22:45:27.523Z,97529.18
2018-12-07T22:48:09.263Z,97533.01
2018-12-07T22:50:56.052Z,97537.68
2018-12-07T22:53:32.874Z,97530.87
2018-12-07T22:56:06.199Z,97545.12
2018-12-07T22:58:39.619Z,97557.48
2018-12-07T23:01:15.699Z,97563.55
2018-12-07T23:03:48.442Z,97565.12
2018-12-07T23:06:22.575Z,97568.83
2018-12-07T23:08:58.249Z,97570.98
2018-12-07T23:11:34.842Z,97575.92
2018-12-07T23:14:05.880Z,97585.97
2018-12-07T23:16:48.265Z,97580.56
2018-12-07T23:19:22.484Z,97590.06
2018-12-07T23:21:56.536Z,97594.16
2018-12-07T23:24:30.709Z,97592.59
2018-12-07T23:27:04.739Z,97589.69
2018-12-07T23:29:40.770Z,97599.19
2018-12-07T23:32:15.559Z,97603.84
2018-12-07T23:34:49.765Z,97593.77
2018-12-07T23:37:21.830Z,97609.87
2018-12-07T23:39:56.786Z,97599.91
2018-12-07T23:42:28.828Z,97601.41
2018-12-07T23:45:05.049Z,97605.61
2018-12-07T23:47:38.022Z,97597.98
2018-12-07T23:50:10.598Z,97608.11
2018-12-07T23:52:45.482Z,97625.42
2018-12-07T23:55:21.631Z,97631.37
2018-12-07T23:57:55.682Z,97635.48
